Terminal Aerodrome Forecast
Issued by NWS

Home | Current Version | Previous Version | Graphics & Text | Print | Product List | Glossary On
Versions: 1 2 3 4 5 6 7 8 9 10 11 12 13 14 15 16 17 18 19 20 21
000
FTUS41 KCLE 150900 AAC
TAFFDY
TAF AMD
KFDY 150958Z 1510/1606 31012KT 6SM -SN BR OVC025
      TEMPO 1510/1513 5SM -SN BR OVC012
     FM151300 31015G25KT P6SM SCT025 BKN045
      TEMPO 1513/1516 6SM -SHSN BKN025
     FM151600 31018G28KT P6SM BKN045
     FM152300 31014G20KT P6SM SCT250
     FM160300 30003KT P6SM SKC=

USA.gov is the U.S. government's official web portal to all federal, state and local government web resources and services.